Pervane — TCNR8 — position and weather

sailwx.info

Track history (hours):
 
Tides and Currents Weather Stations Pressure Air Temp Water Temp Dewpoint Dewpoint Depression Visibility Wind Speed Wind Dir Waves Ship Positions

Pervane

Last reported at 2017-Sep-21 18:02 UTC. Time now 2017-Sep-24 07:04 UTC.
Position N 36°53' E 030°42'.

Length 13 m.

Type: Passenger vessel. MMSI: 271043692.

Date/timePositionNaut miles runAvg speedWind from/ knotsBaromVisibWave heightAir tempDewpointWater temp
2017-Sep-21 18:02N 36°53' E 030°42'0 0.0
2017-Sep-21 17:32N 36°53' E 030°42'0 0.0
2017-Sep-21 17:17N 36°53' E 030°42'0 0.0
2017-Sep-21 16:56N 36°53' E 030°42'1 1.6
2017-Sep-21 16:29N 36°52' E 030°42'1 0.2
2017-Sep-21 12:41N 36°53' E 030°42'1 3.0
2017-Sep-21 12:30N 36°52' E 030°42'  
2017-Sep-14 12:58N 36°53' E 030°42'2 4.9
2017-Sep-14 12:30N 36°51' E 030°44'2 3.9
2017-Sep-14 11:55N 36°51' E 030°47'2 4.3
2017-Sep-14 11:30N 36°51' E 030°45'3 5.2
2017-Sep-14 10:59N 36°53' E 030°42'0 0.0
2017-Sep-13 15:59N 36°53' E 030°42'2 4.5
2017-Sep-13 15:30N 36°51' E 030°40'2 4.7
2017-Sep-13 15:00N 36°50' E 030°38'2 4.6
2017-Sep-13 14:30N 36°48' E 030°36'2 3.0
2017-Sep-13 13:59N 36°47' E 030°35'0 0.0
2017-Sep-13 13:26N 36°47' E 030°35'0 0.0
2017-Sep-13 13:00N 36°47' E 030°35'1 2.4
2017-Sep-13 12:28N 36°48' E 030°35'0 0.0
2017-Sep-13 11:58N 36°48' E 030°35'2 5.1
2017-Sep-13 11:30N 36°50' E 030°37'3 6.2
2017-Sep-13 11:00N 36°52' E 030°40'  
Track history (hours):
 
Tides and Currents Weather Stations Pressure Air Temp Water Temp Dewpoint Dewpoint Depression Visibility Wind Speed Wind Dir Waves Ship Positions

Pervane

Last reported at 2017-Sep-21 18:02 UTC. Time now 2017-Sep-24 07:04 UTC.
Position N 36°53' E 030°42'.

Length 13 m.

Type: Passenger vessel. MMSI: 271043692.

Date/timePositionNaut miles runAvg speedWind from/ knotsBaromVisibWave heightAir tempDewpointWater temp
2017-Sep-21 18:02N 36°53' E 030°42'0 0.0
2017-Sep-21 17:32N 36°53' E 030°42'0 0.0
2017-Sep-21 17:17N 36°53' E 030°42'0 0.0
2017-Sep-21 16:56N 36°53' E 030°42'1 1.6
2017-Sep-21 16:29N 36°52' E 030°42'1 0.2
2017-Sep-21 12:41N 36°53' E 030°42'1 3.0
2017-Sep-21 12:30N 36°52' E 030°42'  
2017-Sep-14 12:58N 36°53' E 030°42'2 4.9
2017-Sep-14 12:30N 36°51' E 030°44'2 3.9
2017-Sep-14 11:55N 36°51' E 030°47'2 4.3
2017-Sep-14 11:30N 36°51' E 030°45'3 5.2
2017-Sep-14 10:59N 36°53' E 030°42'0 0.0
2017-Sep-13 15:59N 36°53' E 030°42'2 4.5
2017-Sep-13 15:30N 36°51' E 030°40'2 4.7
2017-Sep-13 15:00N 36°50' E 030°38'2 4.6
2017-Sep-13 14:30N 36°48' E 030°36'2 3.0
2017-Sep-13 13:59N 36°47' E 030°35'0 0.0
2017-Sep-13 13:26N 36°47' E 030°35'0 0.0
2017-Sep-13 13:00N 36°47' E 030°35'1 2.4
2017-Sep-13 12:28N 36°48' E 030°35'0 0.0
2017-Sep-13 11:58N 36°48' E 030°35'2 5.1
2017-Sep-13 11:30N 36°50' E 030°37'3 6.2
2017-Sep-13 11:00N 36°52' E 030°40'  

Dump ship's entire track history